sensor_id;sensor_type;location;lat;lon;timestamp;pressure;altitude;pressure_sealevel;temperature
71960;BMP280;59832;51.146;14.024;2022-12-05T00:00:58;98314.63;;;2.79
71960;BMP280;59832;51.146;14.024;2022-12-05T00:03:25;98313.22;;;2.86
71960;BMP280;59832;51.146;14.024;2022-12-05T00:05:52;98315.28;;;2.84
71960;BMP280;59832;51.146;14.024;2022-12-05T00:08:18;98324.69;;;2.92
71960;BMP280;59832;51.146;14.024;2022-12-05T00:10:45;98309.59;;;2.92
71960;BMP280;59832;51.146;14.024;2022-12-05T00:13:11;98320.00;;;2.86
71960;BMP280;59832;51.146;14.024;2022-12-05T00:15:39;98312.88;;;2.93
71960;BMP280;59832;51.146;14.024;2022-12-05T00:18:06;98311.09;;;2.93
71960;BMP280;59832;51.146;14.024;2022-12-05T00:20:33;98306.41;;;2.87
71960;BMP280;59832;51.146;14.024;2022-12-05T00:22:59;98309.13;;;2.90
71960;BMP280;59832;51.146;14.024;2022-12-05T00:25:26;98313.88;;;2.92
71960;BMP280;59832;51.146;14.024;2022-12-05T00:27:52;98322.63;;;2.81
71960;BMP280;59832;51.146;14.024;2022-12-05T00:30:19;98321.59;;;2.82
71960;BMP280;59832;51.146;14.024;2022-12-05T00:32:45;98326.72;;;2.90
71960;BMP280;59832;51.146;14.024;2022-12-05T00:35:12;98324.88;;;2.82
71960;BMP280;59832;51.146;14.024;2022-12-05T00:37:38;98322.91;;;2.79
71960;BMP280;59832;51.146;14.024;2022-12-05T00:40:05;98328.69;;;2.80
71960;BMP280;59832;51.146;14.024;2022-12-05T00:42:32;98323.47;;;2.76
71960;BMP280;59832;51.146;14.024;2022-12-05T00:44:58;98328.69;;;2.80
71960;BMP280;59832;51.146;14.024;2022-12-05T00:47:24;98327.38;;;2.68
71960;BMP280;59832;51.146;14.024;2022-12-05T00:49:51;98324.78;;;2.73
71960;BMP280;59832;51.146;14.024;2022-12-05T00:52:17;98323.84;;;2.69
71960;BMP280;59832;51.146;14.024;2022-12-05T00:54:44;98323.28;;;2.72
71960;BMP280;59832;51.146;14.024;2022-12-05T00:57:10;98325.13;;;2.81
71960;BMP280;59832;51.146;14.024;2022-12-05T00:59:37;98322.63;;;2.81
71960;BMP280;59832;51.146;14.024;2022-12-05T01:02:03;98320.59;;;2.83
71960;BMP280;59832;51.146;14.024;2022-12-05T01:04:30;98322.09;;;2.84
71960;BMP280;59832;51.146;14.024;2022-12-05T01:06:57;98323.19;;;2.64
71960;BMP280;59832;51.146;14.024;2022-12-05T01:09:24;98320.97;;;2.76
71960;BMP280;59832;51.146;14.024;2022-12-05T01:11:51;98322.09;;;2.84
71960;BMP280;59832;51.146;14.024;2022-12-05T01:14:20;98329.53;;;2.75
71960;BMP280;59832;51.146;14.024;2022-12-05T01:16:48;98318.53;;;2.71
71960;BMP280;59832;51.146;14.024;2022-12-05T01:19:20;98312.38;;;2.63
71960;BMP280;59832;51.146;14.024;2022-12-05T01:21:47;98312.75;;;2.70
71960;BMP280;59832;51.146;14.024;2022-12-05T01:24:15;98310.81;;;2.67
71960;BMP280;59832;51.146;14.024;2022-12-05T01:26:42;98305.22;;;2.70
71960;BMP280;59832;51.146;14.024;2022-12-05T01:29:11;98302.91;;;2.60
71960;BMP280;59832;51.146;14.024;2022-12-05T01:31:38;98312.59;;;2.67
71960;BMP280;59832;51.146;14.024;2022-12-05T01:34:07;98314.09;;;2.68
71960;BMP280;59832;51.146;14.024;2022-12-05T01:36:35;98318.06;;;2.69
71960;BMP280;59832;51.146;14.024;2022-12-05T01:39:02;98314.25;;;2.71
71960;BMP280;59832;51.146;14.024;2022-12-05T01:41:31;98316.69;;;2.63
71960;BMP280;59832;51.146;14.024;2022-12-05T01:44:58;98319.94;;;2.63
71960;BMP280;59832;51.146;14.024;2022-12-05T01:46:54;98319.28;;;2.71
71960;BMP280;59832;51.146;14.024;2022-12-05T01:49:24;98325.97;;;2.90
71960;BMP280;59832;51.146;14.024;2022-12-05T01:51:57;98310.34;;;2.79
71960;BMP280;59832;51.146;14.024;2022-12-05T01:54:24;98317.81;;;2.84
71960;BMP280;59832;51.146;14.024;2022-12-05T01:57:03;98315.44;;;2.88
71960;BMP280;59832;51.146;14.024;2022-12-05T01:59:34;98312.03;;;2.84
71960;BMP280;59832;51.146;14.024;2022-12-05T02:02:02;98309.91;;;3.13
71960;BMP280;59832;51.146;14.024;2022-12-05T02:04:29;98306.28;;;3.05
71960;BMP280;59832;51.146;14.024;2022-12-05T02:06:56;98300.69;;;3.08
71960;BMP280;59832;51.146;14.024;2022-12-05T02:09:22;98305.47;;;3.10
71960;BMP280;59832;51.146;14.024;2022-12-05T02:11:52;98308.13;;;3.13
71960;BMP280;59832;51.146;14.024;2022-12-05T02:15:09;98304.44;;;2.97
71960;BMP280;59832;51.146;14.024;2022-12-05T02:17:50;98306.94;;;2.97
71960;BMP280;59832;51.146;14.024;2022-12-05T02:25:59;98326.22;;;3.02
71960;BMP280;59832;51.146;14.024;2022-12-05T02:34:46;98326.22;;;3.16
71960;BMP280;59832;51.146;14.024;2022-12-05T02:37:28;98332.88;;;3.34
71960;BMP280;59832;51.146;14.024;2022-12-05T02:40:01;98329.59;;;3.56
71960;BMP280;59832;51.146;14.024;2022-12-05T02:42:37;98318.28;;;3.67
71960;BMP280;59832;51.146;14.024;2022-12-05T02:45:11;98321.31;;;3.55
71960;BMP280;59832;51.146;14.024;2022-12-05T02:47:46;98310.22;;;3.56
71960;BMP280;59832;51.146;14.024;2022-12-05T02:50:17;98316.84;;;3.52
71960;BMP280;59832;51.146;14.024;2022-12-05T02:52:47;98313.19;;;3.58
71960;BMP280;59832;51.146;14.024;2022-12-05T02:55:15;98306.31;;;3.50
71960;BMP280;59832;51.146;14.024;2022-12-05T02:57:47;98300.50;;;3.41
71960;BMP280;59832;51.146;14.024;2022-12-05T03:00:16;98299.78;;;3.49
71960;BMP280;59832;51.146;14.024;2022-12-05T03:02:42;98300.97;;;3.43
71960;BMP280;59832;51.146;14.024;2022-12-05T03:05:39;98304.44;;;3.33
71960;BMP280;59832;51.146;14.024;2022-12-05T03:08:14;98312.00;;;3.33
71960;BMP280;59832;51.146;14.024;2022-12-05T03:10:44;98312.72;;;3.34
71960;BMP280;59832;51.146;14.024;2022-12-05T03:13:16;98316.28;;;3.33
71960;BMP280;59832;51.146;14.024;2022-12-05T03:15:52;98317.41;;;3.27
71960;BMP280;59832;51.146;14.024;2022-12-05T03:18:24;98311.78;;;3.30
71960;BMP280;59832;51.146;14.024;2022-12-05T03:21:13;98315.53;;;3.32
71960;BMP280;59832;51.146;14.024;2022-12-05T03:23:49;98313.75;;;3.33
71960;BMP280;59832;51.146;14.024;2022-12-05T03:26:36;98319.72;;;3.37
71960;BMP280;59832;51.146;14.024;2022-12-05T03:32:18;98314.50;;;3.78
71960;BMP280;59832;51.146;14.024;2022-12-05T03:35:36;98310.97;;;3.79
71960;BMP280;59832;51.146;14.024;2022-12-05T03:37:51;98313.72;;;3.69
71960;BMP280;59832;51.146;14.024;2022-12-05T03:40:25;98316.91;;;3.61
71960;BMP280;59832;51.146;14.024;2022-12-05T03:43:09;98317.19;;;3.59
71960;BMP280;59832;51.146;14.024;2022-12-05T03:45:59;98333.22;;;3.63
71960;BMP280;59832;51.146;14.024;2022-12-05T03:51:15;98326.69;;;3.84
71960;BMP280;59832;51.146;14.024;2022-12-05T03:53:48;98324.81;;;3.99
71960;BMP280;59832;51.146;14.024;2022-12-05T03:56:40;98326.00;;;4.01
71960;BMP280;59832;51.146;14.024;2022-12-05T03:59:34;98331.94;;;3.97
71960;BMP280;59832;51.146;14.024;2022-12-05T04:02:04;98328.50;;;3.92
71960;BMP280;59832;51.146;14.024;2022-12-05T04:04:41;98331.63;;;3.98
71960;BMP280;59832;51.146;14.024;2022-12-05T04:07:10;98332.53;;;3.93
71960;BMP280;59832;51.146;14.024;2022-12-05T04:09:43;98335.31;;;3.92
71960;BMP280;59832;51.146;14.024;2022-12-05T04:12:16;98334.84;;;3.90
71960;BMP280;59832;51.146;14.024;2022-12-05T04:14:46;98326.72;;;3.93
71960;BMP280;59832;51.146;14.024;2022-12-05T04:17:38;98325.34;;;4.18
71960;BMP280;59832;51.146;14.024;2022-12-05T04:20:11;98330.31;;;4.31
71960;BMP280;59832;51.146;14.024;2022-12-05T04:22:57;98325.72;;;4.33
71960;BMP280;59832;51.146;14.024;2022-12-05T04:25:26;98325.63;;;4.47
71960;BMP280;59832;51.146;14.024;2022-12-05T04:30:45;98333.31;;;4.59
71960;BMP280;59832;51.146;14.024;2022-12-05T04:33:16;98331.16;;;4.66
71960;BMP280;59832;51.146;14.024;2022-12-05T04:35:52;98333.97;;;4.65
71960;BMP280;59832;51.146;14.024;2022-12-05T04:38:25;98343.34;;;4.82
71960;BMP280;59832;51.146;14.024;2022-12-05T04:40:56;98344.47;;;4.75
71960;BMP280;59832;51.146;14.024;2022-12-05T04:43:24;98338.44;;;4.85
71960;BMP280;59832;51.146;14.024;2022-12-05T04:45:53;98346.16;;;4.89
71960;BMP280;59832;51.146;14.024;2022-12-05T04:48:24;98335.63;;;4.87
71960;BMP280;59832;51.146;14.024;2022-12-05T04:50:53;98342.31;;;4.83
71960;BMP280;59832;51.146;14.024;2022-12-05T04:53:23;98340.94;;;4.85
71960;BMP280;59832;51.146;14.024;2022-12-05T04:55:53;98343.03;;;4.92
71960;BMP280;59832;51.146;14.024;2022-12-05T04:58:22;98344.66;;;4.79
71960;BMP280;59832;51.146;14.024;2022-12-05T05:01:17;98342.31;;;4.83
71960;BMP280;59832;51.146;14.024;2022-12-05T05:03:50;98344.97;;;4.86
71960;BMP280;59832;51.146;14.024;2022-12-05T05:06:18;98353.25;;;4.78
71960;BMP280;59832;51.146;14.024;2022-12-05T05:08:53;98352.06;;;4.84
71960;BMP280;59832;51.146;14.024;2022-12-05T05:11:22;98355.06;;;4.86
71960;BMP280;59832;51.146;14.024;2022-12-05T05:13:49;98356.53;;;4.87
71960;BMP280;59832;51.146;14.024;2022-12-05T05:16:19;98352.81;;;4.93
71960;BMP280;59832;51.146;14.024;2022-12-05T05:18:47;98349.44;;;4.89
71960;BMP280;59832;51.146;14.024;2022-12-05T05:23:45;98359.53;;;4.89
71960;BMP280;59832;51.146;14.024;2022-12-05T05:26:11;98357.13;;;4.93
71960;BMP280;59832;51.146;14.024;2022-12-05T05:28:38;98356.81;;;4.94
71960;BMP280;59832;51.146;14.024;2022-12-05T05:31:05;98354.19;;;4.91
71960;BMP280;59832;51.146;14.024;2022-12-05T05:33:33;98354.75;;;4.88
71960;BMP280;59832;51.146;14.024;2022-12-05T05:36:08;98362.31;;;4.79
71960;BMP280;59832;51.146;14.024;2022-12-05T05:38:36;98357.53;;;4.78
71960;BMP280;59832;51.146;14.024;2022-12-05T05:41:04;98368.88;;;4.89
71960;BMP280;59832;51.146;14.024;2022-12-05T05:43:31;98366.75;;;4.73
71960;BMP280;59832;51.146;14.024;2022-12-05T05:45:57;98368.13;;;4.88
71960;BMP280;59832;51.146;14.024;2022-12-05T05:48:24;98368.13;;;4.88
71960;BMP280;59832;51.146;14.024;2022-12-05T05:50:50;98375.69;;;4.88
71960;BMP280;59832;51.146;14.024;2022-12-05T05:53:16;98367.94;;;4.85
71960;BMP280;59832;51.146;14.024;2022-12-05T05:55:43;98359.22;;;4.82
71960;BMP280;59832;51.146;14.024;2022-12-05T05:58:09;98371.22;;;4.85
71960;BMP280;59832;51.146;14.024;2022-12-05T06:00:36;98369.44;;;4.86
71960;BMP280;59832;51.146;14.024;2022-12-05T06:03:02;98372.84;;;4.81
71960;BMP280;59832;51.146;14.024;2022-12-05T06:05:29;98372.09;;;4.81
71960;BMP280;59832;51.146;14.024;2022-12-05T06:07:55;98362.00;;;4.81
71960;BMP280;59832;51.146;14.024;2022-12-05T06:10:21;98360.06;;;4.78
71960;BMP280;59832;51.146;14.024;2022-12-05T06:12:48;98363.34;;;4.87
71960;BMP280;59832;51.146;14.024;2022-12-05T06:15:14;98367.06;;;4.81
71960;BMP280;59832;51.146;14.024;2022-12-05T06:17:41;98361.56;;;4.70
71960;BMP280;59832;51.146;14.024;2022-12-05T06:20:08;98371.53;;;4.84
71960;BMP280;59832;51.146;14.024;2022-12-05T06:22:34;98373.75;;;4.85
71960;BMP280;59832;51.146;14.024;2022-12-05T06:25:01;98387.69;;;4.83
71960;BMP280;59832;51.146;14.024;2022-12-05T06:27:28;98392.84;;;4.78
71960;BMP280;59832;51.146;14.024;2022-12-05T06:29:55;98391.81;;;4.79
71960;BMP280;59832;51.146;14.024;2022-12-05T06:32:22;98403.56;;;4.83
71960;BMP280;59832;51.146;14.024;2022-12-05T06:34:48;98405.34;;;4.83
71960;BMP280;59832;51.146;14.024;2022-12-05T06:37:15;98410.03;;;4.75
71960;BMP280;59832;51.146;14.024;2022-12-05T06:39:41;98413.03;;;4.78
71960;BMP280;59832;51.146;14.024;2022-12-05T06:42:08;98415.25;;;4.70
71960;BMP280;59832;51.146;14.024;2022-12-05T06:44:34;98418.22;;;4.72
71960;BMP280;59832;51.146;14.024;2022-12-05T06:47:01;98427.91;;;4.88
71960;BMP280;59832;51.146;14.024;2022-12-05T06:49:28;98428.94;;;4.87
71960;BMP280;59832;51.146;14.024;2022-12-05T06:52:03;98431.31;;;4.92
71960;BMP280;59832;51.146;14.024;2022-12-05T06:54:29;98427.91;;;4.88
71960;BMP280;59832;51.146;14.024;2022-12-05T06:56:56;98428.47;;;4.85
71960;BMP280;59832;51.146;14.024;2022-12-05T06:59:22;98423.59;;;4.88
71960;BMP280;59832;51.146;14.024;2022-12-05T07:01:48;98433.03;;;4.74
71960;BMP280;59832;51.146;14.024;2022-12-05T07:04:18;98432.72;;;4.75
71960;BMP280;59832;51.146;14.024;2022-12-05T07:06:52;98433.78;;;4.74
71960;BMP280;59832;51.146;14.024;2022-12-05T07:09:22;98430.59;;;4.91
71960;BMP280;59832;51.146;14.024;2022-12-05T07:12:09;98436.34;;;4.83
71960;BMP280;59832;51.146;14.024;2022-12-05T07:14:36;98436.47;;;4.78
71960;BMP280;59832;51.146;14.024;2022-12-05T07:17:13;98436.63;;;4.82
71960;BMP280;59832;51.146;14.024;2022-12-05T07:19:40;98438.13;;;4.83
71960;BMP280;59832;51.146;14.024;2022-12-05T07:22:06;98440.50;;;4.88
71960;BMP280;59832;51.146;14.024;2022-12-05T07:24:40;98435.28;;;4.84
71960;BMP280;59832;51.146;14.024;2022-12-05T07:27:06;98434.91;;;4.91
71960;BMP280;59832;51.146;14.024;2022-12-05T07:29:33;98435.66;;;5.00
71960;BMP280;59832;51.146;14.024;2022-12-05T07:31:59;98443.47;;;4.81
71960;BMP280;59832;51.146;14.024;2022-12-05T07:34:27;98439.19;;;4.90
71960;BMP280;59832;51.146;14.024;2022-12-05T07:36:53;98424.81;;;4.91
71960;BMP280;59832;51.146;14.024;2022-12-05T07:39:20;98436.03;;;4.93
71960;BMP280;59832;51.146;14.024;2022-12-05T07:41:46;98441.84;;;4.94
71960;BMP280;59832;51.146;14.024;2022-12-05T07:44:12;98436.97;;;4.97
71960;BMP280;59832;51.146;14.024;2022-12-05T07:46:39;98436.34;;;4.92
71960;BMP280;59832;51.146;14.024;2022-12-05T07:49:06;98443.06;;;5.05
71960;BMP280;59832;51.146;14.024;2022-12-05T07:51:33;98444.84;;;5.04
71960;BMP280;59832;51.146;14.024;2022-12-05T07:54:01;98439.94;;;4.91
71960;BMP280;59832;51.146;14.024;2022-12-05T07:56:27;98445.28;;;4.89
71960;BMP280;59832;51.146;14.024;2022-12-05T07:58:54;98453.69;;;4.93
71960;BMP280;59832;51.146;14.024;2022-12-05T08:01:23;98450.31;;;4.98
71960;BMP280;59832;51.146;14.024;2022-12-05T08:03:52;98453.69;;;4.93
71960;BMP280;59832;51.146;14.024;2022-12-05T08:06:26;98455.06;;;4.91
71960;BMP280;59832;51.146;14.024;2022-12-05T08:08:53;98460.41;;;4.98
71960;BMP280;59832;51.146;14.024;2022-12-05T08:11:22;98461.94;;;5.07
71960;BMP280;59832;51.146;14.024;2022-12-05T08:13:49;98462.19;;;4.97
71960;BMP280;59832;51.146;14.024;2022-12-05T08:16:19;98463.72;;;5.07
71960;BMP280;59832;51.146;14.024;2022-12-05T08:18:46;98462.81;;;5.03
71960;BMP280;59832;51.146;14.024;2022-12-05T08:21:14;98461.31;;;5.02
71960;BMP280;59832;51.146;14.024;2022-12-05T08:23:42;98463.97;;;4.97
71960;BMP280;59832;51.146;14.024;2022-12-05T08:26:19;98474.38;;;5.04
71960;BMP280;59832;51.146;14.024;2022-12-05T08:28:46;98471.72;;;5.09
71960;BMP280;59832;51.146;14.024;2022-12-05T08:31:17;98469.75;;;4.97
71960;BMP280;59832;51.146;14.024;2022-12-05T08:33:44;98470.97;;;5.00
71960;BMP280;59832;51.146;14.024;2022-12-05T08:36:13;98467.84;;;5.03
71960;BMP280;59832;51.146;14.024;2022-12-05T08:38:41;98468.44;;;5.08
71960;BMP280;59832;51.146;14.024;2022-12-05T08:41:13;98475.31;;;5.08
71960;BMP280;59832;51.146;14.024;2022-12-05T08:43:40;98469.50;;;5.07
71960;BMP280;59832;51.146;14.024;2022-12-05T08:46:07;98477.81;;;5.08
71960;BMP280;59832;51.146;14.024;2022-12-05T08:48:34;98478.97;;;5.10
71960;BMP280;59832;51.146;14.024;2022-12-05T08:51:06;98485.09;;;5.09
71960;BMP280;59832;51.146;14.024;2022-12-05T08:53:34;98485.22;;;5.04
71960;BMP280;59832;51.146;14.024;2022-12-05T08:56:09;98472.50;;;5.18
71960;BMP280;59832;51.146;14.024;2022-12-05T08:58:36;98483.78;;;5.21
71960;BMP280;59832;51.146;14.024;2022-12-05T09:01:08;98483.19;;;5.24
71960;BMP280;59832;51.146;14.024;2022-12-05T09:03:35;98482.44;;;5.23
71960;BMP280;59832;51.146;14.024;2022-12-05T09:06:22;98486.91;;;5.18
71960;BMP280;59832;51.146;14.024;2022-12-05T09:08:53;98483.03;;;5.29
71960;BMP280;59832;51.146;14.024;2022-12-05T09:11:25;98491.22;;;5.34
71960;BMP280;59832;51.146;14.024;2022-12-05T09:13:54;98489.56;;;5.21
71960;BMP280;59832;51.146;14.024;2022-12-05T09:16:23;98495.34;;;5.30
71960;BMP280;59832;51.146;14.024;2022-12-05T09:18:51;98494.63;;;5.30
71960;BMP280;59832;51.146;14.024;2022-12-05T09:21:21;98498.81;;;5.34
71960;BMP280;59832;51.146;14.024;2022-12-05T09:23:48;98501.31;;;5.34
71960;BMP280;59832;51.146;14.024;2022-12-05T09:26:17;98504.25;;;5.28
71960;BMP280;59832;51.146;14.024;2022-12-05T09:28:44;98507.53;;;5.28
71960;BMP280;59832;51.146;14.024;2022-12-05T09:31:16;98508.72;;;5.22
71960;BMP280;59832;51.146;14.024;2022-12-05T09:33:43;98507.13;;;5.35
71960;BMP280;59832;51.146;14.024;2022-12-05T09:36:16;98506.78;;;5.28
71960;BMP280;59832;51.146;14.024;2022-12-05T09:38:43;98519.28;;;5.24
71960;BMP280;59832;51.146;14.024;2022-12-05T09:49:58;98519.00;;;5.34
71960;BMP280;59832;51.146;14.024;2022-12-05T09:52:32;98510.03;;;5.28
71960;BMP280;59832;51.146;14.024;2022-12-05T09:55:05;98516.00;;;5.32
71960;BMP280;59832;51.146;14.024;2022-12-05T09:57:37;98504.72;;;5.30
71960;BMP280;59832;51.146;14.024;2022-12-05T10:00:06;98507.53;;;5.28
71960;BMP280;59832;51.146;14.024;2022-12-05T10:05:27;98512.31;;;5.38
71960;BMP280;59832;51.146;14.024;2022-12-05T10:09:05;98507.88;;;5.35
71960;BMP280;59832;51.146;14.024;2022-12-05T10:11:20;98511.44;;;5.34
71960;BMP280;59832;51.146;14.024;2022-12-05T10:14:20;98519.28;;;5.33
71960;BMP280;59832;51.146;14.024;2022-12-05T10:16:53;98518.34;;;5.29
71960;BMP280;59832;51.146;14.024;2022-12-05T10:19:38;98519.09;;;5.29
71960;BMP280;59832;51.146;14.024;2022-12-05T10:22:18;98524.44;;;5.19
71960;BMP280;59832;51.146;14.024;2022-12-05T10:24:51;98519.28;;;5.24
71960;BMP280;59832;51.146;14.024;2022-12-05T10:27:26;98524.31;;;5.24
71960;BMP280;59832;51.146;14.024;2022-12-05T10:32:57;98535.28;;;5.20
71960;BMP280;59832;51.146;14.024;2022-12-05T10:35:32;98528.63;;;5.24
71960;BMP280;59832;51.146;14.024;2022-12-05T10:38:03;98530.69;;;5.22
71960;BMP280;59832;51.146;14.024;2022-12-05T10:40:36;98528.28;;;5.16
71960;BMP280;59832;51.146;14.024;2022-12-05T10:43:05;98516.97;;;5.05
71960;BMP280;59832;51.146;14.024;2022-12-05T10:45:40;98520.38;;;5.01
71960;BMP280;59832;51.146;14.024;2022-12-05T10:48:10;98514.69;;;4.95
71960;BMP280;59832;51.146;14.024;2022-12-05T10:50:38;98520.06;;;5.02
71960;BMP280;59832;51.146;14.024;2022-12-05T10:53:05;98511.94;;;5.05
71960;BMP280;59832;51.146;14.024;2022-12-05T10:55:39;98507.03;;;5.00
71960;BMP280;59832;51.146;14.024;2022-12-05T10:58:16;98510.63;;;5.08
71960;BMP280;59832;51.146;14.024;2022-12-05T11:00:45;98508.69;;;5.13
71960;BMP280;59832;51.146;14.024;2022-12-05T11:03:35;98510.75;;;5.11
71960;BMP280;59832;51.146;14.024;2022-12-05T11:06:17;98512.22;;;5.04
71960;BMP280;59832;51.146;14.024;2022-12-05T11:08:51;98509.19;;;4.93
71960;BMP280;59832;51.146;14.024;2022-12-05T11:11:32;98520.81;;;5.03
71960;BMP280;59832;51.146;14.024;2022-12-05T11:14:04;98519.59;;;4.92
71960;BMP280;59832;51.146;14.024;2022-12-05T11:16:34;98509.38;;;4.97
71960;BMP280;59832;51.146;14.024;2022-12-05T11:21:49;98517.13;;;5.00
71960;BMP280;59832;51.146;14.024;2022-12-05T11:24:20;98511.00;;;5.01
71960;BMP280;59832;51.146;14.024;2022-12-05T11:26:48;98510.88;;;4.98
71960;BMP280;59832;51.146;14.024;2022-12-05T11:29:35;98511.63;;;4.98
71960;BMP280;59832;51.146;14.024;2022-12-05T11:32:04;98517.25;;;5.04
71960;BMP280;59832;51.146;14.024;2022-12-05T11:34:40;98522.31;;;5.04
71960;BMP280;59832;51.146;14.024;2022-12-05T11:37:20;98517.56;;;5.02
71960;BMP280;59832;51.146;14.024;2022-12-05T11:39:47;98522.28;;;4.95
71960;BMP280;59832;51.146;14.024;2022-12-05T11:47:54;98515.16;;;4.89
71960;BMP280;59832;51.146;14.024;2022-12-05T11:50:45;98505.91;;;4.84
71960;BMP280;59832;51.146;14.024;2022-12-05T11:53:34;98506.84;;;4.88
71960;BMP280;59832;51.146;14.024;2022-12-05T11:59:07;98501.31;;;4.86
71960;BMP280;59832;51.146;14.024;2022-12-05T12:05:01;98497.69;;;5.01
71960;BMP280;59832;51.146;14.024;2022-12-05T12:07:57;98493.34;;;5.01
71960;BMP280;59832;51.146;14.024;2022-12-05T12:24:52;98492.09;;;5.21
71960;BMP280;59832;51.146;14.024;2022-12-05T12:30:15;98487.00;;;5.04
71960;BMP280;59832;51.146;14.024;2022-12-05T12:33:07;98485.78;;;5.01
71960;BMP280;59832;51.146;14.024;2022-12-05T12:46:49;98486.97;;;4.95
71960;BMP280;59832;51.146;14.024;2022-12-05T12:49:31;98486.25;;;5.03
71960;BMP280;59832;51.146;14.024;2022-12-05T12:52:15;98488.44;;;4.96
71960;BMP280;59832;51.146;14.024;2022-12-05T12:57:46;98486.53;;;5.02
71960;BMP280;59832;51.146;14.024;2022-12-05T13:03:11;98483.44;;;5.05
71960;BMP280;59832;51.146;14.024;2022-12-05T13:05:45;98489.81;;;5.02
71960;BMP280;59832;51.146;14.024;2022-12-05T13:08:33;98496.19;;;5.00
71960;BMP280;59832;51.146;14.024;2022-12-05T13:11:06;98502.88;;;5.04
71960;BMP280;59832;51.146;14.024;2022-12-05T13:13:37;98504.25;;;5.28
71960;BMP280;59832;51.146;14.024;2022-12-05T13:16:05;98512.41;;;5.16
71960;BMP280;59832;51.146;14.024;2022-12-05T13:18:33;98500.09;;;5.14
71960;BMP280;59832;51.146;14.024;2022-12-05T13:21:05;98500.66;;;5.11
71960;BMP280;59832;51.146;14.024;2022-12-05T13:23:37;98507.19;;;5.12
71960;BMP280;59832;51.146;14.024;2022-12-05T13:26:10;98499.59;;;5.04
71960;BMP280;59832;51.146;14.024;2022-12-05T13:29:01;98489.22;;;5.05
71960;BMP280;59832;51.146;14.024;2022-12-05T13:31:41;98498.72;;;5.08
71960;BMP280;59832;51.146;14.024;2022-12-05T13:36:56;98498.00;;;5.08
71960;BMP280;59832;51.146;14.024;2022-12-05T13:39:49;98499.88;;;5.02
71960;BMP280;59832;51.146;14.024;2022-12-05T13:42:35;98502.88;;;5.13
71960;BMP280;59832;51.146;14.024;2022-12-05T13:50:38;98504.91;;;4.94
71960;BMP280;59832;51.146;14.024;2022-12-05T13:53:28;98500.34;;;5.04
71960;BMP280;59832;51.146;14.024;2022-12-05T13:56:02;98502.53;;;4.89
71960;BMP280;59832;51.146;14.024;2022-12-05T14:04:22;98511.16;;;4.96
71960;BMP280;59832;51.146;14.024;2022-12-05T14:17:32;98500.28;;;4.87
71960;BMP280;59832;51.146;14.024;2022-12-05T14:34:51;98497.31;;;4.85
71960;BMP280;59832;51.146;14.024;2022-12-05T14:37:25;98499.09;;;4.85
71960;BMP280;59832;51.146;14.024;2022-12-05T14:39:55;98504.88;;;4.85
71960;BMP280;59832;51.146;14.024;2022-12-05T14:42:50;98508.75;;;4.83
71960;BMP280;59832;51.146;14.024;2022-12-05T14:45:39;98500.72;;;4.81
71960;BMP280;59832;51.146;14.024;2022-12-05T14:50:40;98501.63;;;4.93
71960;BMP280;59832;51.146;14.024;2022-12-05T14:55:57;98508.03;;;4.91
71960;BMP280;59832;51.146;14.024;2022-12-05T15:01:39;98516.31;;;4.83
71960;BMP280;59832;51.146;14.024;2022-12-05T15:04:29;98519.38;;;4.80
71960;BMP280;59832;51.146;14.024;2022-12-05T15:09:57;98513.13;;;4.77
71960;BMP280;59832;51.146;14.024;2022-12-05T15:12:32;98518.47;;;4.75
71960;BMP280;59832;51.146;14.024;2022-12-05T15:17:44;98515.50;;;4.73
71960;BMP280;59832;51.146;14.024;2022-12-05T15:20:56;98515.50;;;4.73
71960;BMP280;59832;51.146;14.024;2022-12-05T15:26:15;98514.78;;;4.73
71960;BMP280;59832;51.146;14.024;2022-12-05T15:29:04;98520.84;;;4.72
71960;BMP280;59832;51.146;14.024;2022-12-05T15:31:38;98517.31;;;4.73
71960;BMP280;59832;51.146;14.024;2022-12-05T15:36:56;98523.66;;;4.70
71960;BMP280;59832;51.146;14.024;2022-12-05T15:39:25;98519.66;;;4.69
71960;BMP280;59832;51.146;14.024;2022-12-05T15:41:52;98519.19;;;4.67
71960;BMP280;59832;51.146;14.024;2022-12-05T15:44:19;98516.31;;;4.60
71960;BMP280;59832;51.146;14.024;2022-12-05T15:46:54;98514.16;;;4.67
71960;BMP280;59832;51.146;14.024;2022-12-05T15:49:24;98510.31;;;4.70
71960;BMP280;59832;51.146;14.024;2022-12-05T15:54:38;98522.16;;;4.69
71960;BMP280;59832;51.146;14.024;2022-12-05T15:57:18;98522.28;;;4.64
71960;BMP280;59832;51.146;14.024;2022-12-05T16:00:11;98518.16;;;4.68
71960;BMP280;59832;51.146;14.024;2022-12-05T16:02:49;98525.94;;;4.58
71960;BMP280;59832;51.146;14.024;2022-12-05T16:05:24;98519.88;;;4.59
71960;BMP280;59832;51.146;14.024;2022-12-05T16:07:54;98529.97;;;4.59
71960;BMP280;59832;51.146;14.024;2022-12-05T16:10:22;98530.69;;;4.60
71960;BMP280;59832;51.146;14.024;2022-12-05T16:12:55;98531.56;;;4.55
71960;BMP280;59832;51.146;14.024;2022-12-05T16:15:27;98528.34;;;4.55
71960;BMP280;59832;51.146;14.024;2022-12-05T16:17:55;98530.94;;;4.50
71960;BMP280;59832;51.146;14.024;2022-12-05T16:20:27;98536.63;;;4.55
71960;BMP280;59832;51.146;14.024;2022-12-05T16:23:00;98529.06;;;4.55
71960;BMP280;59832;51.146;14.024;2022-12-05T16:25:29;98532.91;;;4.53
71960;BMP280;59832;51.146;14.024;2022-12-05T16:28:01;98539.72;;;4.52
71960;BMP280;59832;51.146;14.024;2022-12-05T16:30:29;98536.19;;;4.53
71960;BMP280;59832;51.146;14.024;2022-12-05T16:32:58;98540.75;;;4.51
71960;BMP280;59832;51.146;14.024;2022-12-05T16:35:40;98530.66;;;4.51
71960;BMP280;59832;51.146;14.024;2022-12-05T16:38:17;98534.97;;;4.51
71960;BMP280;59832;51.146;14.024;2022-12-05T16:43:23;98544.69;;;4.44
71960;BMP280;59832;51.146;14.024;2022-12-05T16:45:53;98536.75;;;4.50
71960;BMP280;59832;51.146;14.024;2022-12-05T16:48:27;98554.22;;;4.47
71960;BMP280;59832;51.146;14.024;2022-12-05T16:53:48;98552.09;;;4.40
71960;BMP280;59832;51.146;14.024;2022-12-05T16:56:18;98549.41;;;4.37
71960;BMP280;59832;51.146;14.024;2022-12-05T16:58:46;98549.41;;;4.37
71960;BMP280;59832;51.146;14.024;2022-12-05T17:01:16;98546.31;;;4.40
71960;BMP280;59832;51.146;14.024;2022-12-05T17:03:43;98549.88;;;4.39
71960;BMP280;59832;51.146;14.024;2022-12-05T17:06:11;98548.53;;;4.41
71960;BMP280;59832;51.146;14.024;2022-12-05T17:08:38;98553.56;;;4.41
71960;BMP280;59832;51.146;14.024;2022-12-05T17:11:05;98558.16;;;4.39